sensor_id;sensor_type;location;lat;lon;timestamp;P1;durP1;ratioP1;P2;durP2;ratioP2
13202;SDS011;6666;51.626;7.530;2023-05-14T00:01:59;14.82;;;9.40;;
13202;SDS011;6666;51.626;7.530;2023-05-14T00:04:27;13.40;;;8.85;;
13202;SDS011;6666;51.626;7.530;2023-05-14T00:06:56;14.25;;;8.88;;
13202;SDS011;6666;51.626;7.530;2023-05-14T00:09:25;15.93;;;9.10;;
13202;SDS011;6666;51.626;7.530;2023-05-14T00:11:55;12.85;;;8.90;;
13202;SDS011;6666;51.626;7.530;2023-05-14T00:14:23;12.10;;;8.23;;
13202;SDS011;6666;51.626;7.530;2023-05-14T00:16:51;14.60;;;8.55;;
13202;SDS011;6666;51.626;7.530;2023-05-14T00:19:20;11.90;;;8.32;;
13202;SDS011;6666;51.626;7.530;2023-05-14T00:21:48;13.15;;;8.60;;
13202;SDS011;6666;51.626;7.530;2023-05-14T00:24:16;14.20;;;9.05;;
13202;SDS011;6666;51.626;7.530;2023-05-14T00:26:45;13.70;;;8.70;;
13202;SDS011;6666;51.626;7.530;2023-05-14T00:29:13;13.13;;;7.60;;
13202;SDS011;6666;51.626;7.530;2023-05-14T00:31:42;11.27;;;7.90;;
13202;SDS011;6666;51.626;7.530;2023-05-14T00:34:10;12.30;;;7.60;;
13202;SDS011;6666;51.626;7.530;2023-05-14T00:36:38;8.50;;;6.15;;
13202;SDS011;6666;51.626;7.530;2023-05-14T00:39:06;9.75;;;6.50;;
13202;SDS011;6666;51.626;7.530;2023-05-14T00:41:34;10.40;;;6.47;;
13202;SDS011;6666;51.626;7.530;2023-05-14T00:44:04;7.13;;;6.10;;
13202;SDS011;6666;51.626;7.530;2023-05-14T00:46:32;7.72;;;6.35;;
13202;SDS011;6666;51.626;7.530;2023-05-14T00:49:00;8.90;;;5.90;;
13202;SDS011;6666;51.626;7.530;2023-05-14T00:51:28;7.90;;;5.40;;
13202;SDS011;6666;51.626;7.530;2023-05-14T00:53:56;9.50;;;5.20;;
13202;SDS011;6666;51.626;7.530;2023-05-14T00:56:25;9.40;;;5.82;;
13202;SDS011;6666;51.626;7.530;2023-05-14T00:58:54;9.57;;;5.45;;
13202;SDS011;6666;51.626;7.530;2023-05-14T01:01:23;9.75;;;5.60;;
13202;SDS011;6666;51.626;7.530;2023-05-14T01:03:53;5.90;;;5.10;;
13202;SDS011;6666;51.626;7.530;2023-05-14T01:06:25;6.53;;;5.20;;
13202;SDS011;6666;51.626;7.530;2023-05-14T01:08:58;8.35;;;5.72;;
13202;SDS011;6666;51.626;7.530;2023-05-14T01:11:32;9.73;;;5.43;;
13202;SDS011;6666;51.626;7.530;2023-05-14T01:14:08;6.67;;;5.50;;
13202;SDS011;6666;51.626;7.530;2023-05-14T01:16:46;5.88;;;5.22;;
13202;SDS011;6666;51.626;7.530;2023-05-14T01:19:20;7.20;;;5.93;;
13202;SDS011;6666;51.626;7.530;2023-05-14T01:21:53;6.93;;;5.00;;
13202;SDS011;6666;51.626;7.530;2023-05-14T01:24:21;9.38;;;6.05;;
13202;SDS011;6666;51.626;7.530;2023-05-14T01:26:49;8.60;;;6.00;;
13202;SDS011;6666;51.626;7.530;2023-05-14T01:29:18;9.80;;;6.10;;
13202;SDS011;6666;51.626;7.530;2023-05-14T01:31:49;10.98;;;6.72;;
13202;SDS011;6666;51.626;7.530;2023-05-14T01:34:21;9.80;;;6.50;;
13202;SDS011;6666;51.626;7.530;2023-05-14T01:36:50;10.57;;;6.40;;
13202;SDS011;6666;51.626;7.530;2023-05-14T01:39:22;10.40;;;6.35;;
13202;SDS011;6666;51.626;7.530;2023-05-14T01:41:52;13.32;;;6.20;;
13202;SDS011;6666;51.626;7.530;2023-05-14T01:44:21;11.13;;;6.30;;
13202;SDS011;6666;51.626;7.530;2023-05-14T01:46:50;8.80;;;6.55;;
13202;SDS011;6666;51.626;7.530;2023-05-14T01:49:18;8.43;;;6.30;;
13202;SDS011;6666;51.626;7.530;2023-05-14T01:51:46;7.55;;;5.90;;
13202;SDS011;6666;51.626;7.530;2023-05-14T01:54:16;9.85;;;6.55;;
13202;SDS011;6666;51.626;7.530;2023-05-14T01:56:44;8.70;;;6.20;;
13202;SDS011;6666;51.626;7.530;2023-05-14T01:59:12;11.00;;;7.20;;
13202;SDS011;6666;51.626;7.530;2023-05-14T02:01:41;7.78;;;6.90;;
13202;SDS011;6666;51.626;7.530;2023-05-14T02:04:09;11.95;;;6.95;;
13202;SDS011;6666;51.626;7.530;2023-05-14T02:06:40;10.15;;;7.35;;
13202;SDS011;6666;51.626;7.530;2023-05-14T02:09:08;9.70;;;7.50;;
13202;SDS011;6666;51.626;7.530;2023-05-14T02:11:38;9.60;;;7.00;;
13202;SDS011;6666;51.626;7.530;2023-05-14T02:14:06;8.20;;;6.78;;
13202;SDS011;6666;51.626;7.530;2023-05-14T02:16:34;9.98;;;6.60;;
13202;SDS011;6666;51.626;7.530;2023-05-14T02:19:02;8.68;;;7.18;;
13202;SDS011;6666;51.626;7.530;2023-05-14T02:21:31;10.07;;;6.72;;
13202;SDS011;6666;51.626;7.530;2023-05-14T02:24:00;9.10;;;7.45;;
13202;SDS011;6666;51.626;7.530;2023-05-14T02:26:28;9.57;;;6.70;;
13202;SDS011;6666;51.626;7.530;2023-05-14T02:28:57;9.23;;;7.10;;
13202;SDS011;6666;51.626;7.530;2023-05-14T02:31:25;8.68;;;7.25;;
13202;SDS011;6666;51.626;7.530;2023-05-14T02:33:54;9.77;;;7.15;;
13202;SDS011;6666;51.626;7.530;2023-05-14T02:36:22;10.30;;;8.20;;
13202;SDS011;6666;51.626;7.530;2023-05-14T02:38:50;11.75;;;7.90;;
13202;SDS011;6666;51.626;7.530;2023-05-14T02:41:18;9.00;;;7.65;;
13202;SDS011;6666;51.626;7.530;2023-05-14T02:43:46;11.20;;;7.47;;
13202;SDS011;6666;51.626;7.530;2023-05-14T02:46:16;10.55;;;7.90;;
13202;SDS011;6666;51.626;7.530;2023-05-14T02:48:44;10.00;;;8.20;;
13202;SDS011;6666;51.626;7.530;2023-05-14T02:51:12;12.25;;;7.97;;
13202;SDS011;6666;51.626;7.530;2023-05-14T02:53:41;12.17;;;8.43;;
13202;SDS011;6666;51.626;7.530;2023-05-14T02:56:09;12.63;;;8.90;;
13202;SDS011;6666;51.626;7.530;2023-05-14T02:58:37;11.38;;;8.30;;
13202;SDS011;6666;51.626;7.530;2023-05-14T03:01:06;12.40;;;8.73;;
13202;SDS011;6666;51.626;7.530;2023-05-14T03:03:36;12.68;;;8.88;;
13202;SDS011;6666;51.626;7.530;2023-05-14T03:06:05;14.35;;;9.60;;
13202;SDS011;6666;51.626;7.530;2023-05-14T03:08:33;12.13;;;8.70;;
13202;SDS011;6666;51.626;7.530;2023-05-14T03:11:01;11.47;;;9.40;;
13202;SDS011;6666;51.626;7.530;2023-05-14T03:13:30;12.70;;;9.70;;
13202;SDS011;6666;51.626;7.530;2023-05-14T03:15:58;13.57;;;8.90;;
13202;SDS011;6666;51.626;7.530;2023-05-14T03:18:26;13.52;;;8.90;;
13202;SDS011;6666;51.626;7.530;2023-05-14T03:20:57;14.37;;;9.63;;
13202;SDS011;6666;51.626;7.530;2023-05-14T03:23:26;14.05;;;9.90;;
13202;SDS011;6666;51.626;7.530;2023-05-14T03:25:54;11.55;;;9.38;;
13202;SDS011;6666;51.626;7.530;2023-05-14T03:28:23;18.10;;;9.40;;
13202;SDS011;6666;51.626;7.530;2023-05-14T03:30:51;13.15;;;9.35;;
13202;SDS011;6666;51.626;7.530;2023-05-14T03:33:19;13.10;;;10.00;;
13202;SDS011;6666;51.626;7.530;2023-05-14T03:35:48;14.00;;;10.13;;
13202;SDS011;6666;51.626;7.530;2023-05-14T03:38:18;12.75;;;9.88;;
13202;SDS011;6666;51.626;7.530;2023-05-14T03:40:46;10.85;;;8.70;;
13202;SDS011;6666;51.626;7.530;2023-05-14T03:43:14;14.50;;;9.80;;
13202;SDS011;6666;51.626;7.530;2023-05-14T03:45:42;12.18;;;8.95;;
13202;SDS011;6666;51.626;7.530;2023-05-14T03:48:10;12.07;;;8.48;;
13202;SDS011;6666;51.626;7.530;2023-05-14T03:50:38;12.30;;;9.65;;
13202;SDS011;6666;51.626;7.530;2023-05-14T03:53:07;11.18;;;8.80;;
13202;SDS011;6666;51.626;7.530;2023-05-14T03:55:36;13.82;;;8.63;;
13202;SDS011;6666;51.626;7.530;2023-05-14T03:58:08;10.90;;;8.88;;
13202;SDS011;6666;51.626;7.530;2023-05-14T04:00:39;13.80;;;9.10;;
13202;SDS011;6666;51.626;7.530;2023-05-14T04:03:09;12.23;;;8.90;;
13202;SDS011;6666;51.626;7.530;2023-05-14T04:05:37;13.25;;;8.63;;
13202;SDS011;6666;51.626;7.530;2023-05-14T04:08:06;13.32;;;8.75;;
13202;SDS011;6666;51.626;7.530;2023-05-14T04:10:34;10.23;;;8.10;;
13202;SDS011;6666;51.626;7.530;2023-05-14T04:13:03;13.43;;;9.10;;
13202;SDS011;6666;51.626;7.530;2023-05-14T04:15:34;12.73;;;8.90;;
13202;SDS011;6666;51.626;7.530;2023-05-14T04:18:04;13.07;;;9.17;;
13202;SDS011;6666;51.626;7.530;2023-05-14T04:20:32;11.88;;;8.63;;
13202;SDS011;6666;51.626;7.530;2023-05-14T04:23:00;12.07;;;8.32;;
13202;SDS011;6666;51.626;7.530;2023-05-14T04:25:28;9.52;;;7.22;;
13202;SDS011;6666;51.626;7.530;2023-05-14T04:27:56;9.47;;;6.50;;
13202;SDS011;6666;51.626;7.530;2023-05-14T04:30:26;9.73;;;6.68;;
13202;SDS011;6666;51.626;7.530;2023-05-14T04:32:54;12.52;;;7.25;;
13202;SDS011;6666;51.626;7.530;2023-05-14T04:35:23;8.38;;;6.70;;
13202;SDS011;6666;51.626;7.530;2023-05-14T04:37:51;9.20;;;6.65;;
13202;SDS011;6666;51.626;7.530;2023-05-14T04:40:19;8.02;;;6.60;;
13202;SDS011;6666;51.626;7.530;2023-05-14T04:42:48;8.00;;;7.00;;
13202;SDS011;6666;51.626;7.530;2023-05-14T04:45:16;8.88;;;6.47;;
13202;SDS011;6666;51.626;7.530;2023-05-14T04:47:46;8.10;;;6.00;;
13202;SDS011;6666;51.626;7.530;2023-05-14T04:50:15;7.00;;;6.20;;
13202;SDS011;6666;51.626;7.530;2023-05-14T04:52:43;8.53;;;6.30;;
13202;SDS011;6666;51.626;7.530;2023-05-14T04:55:11;7.90;;;6.60;;
13202;SDS011;6666;51.626;7.530;2023-05-14T04:57:39;9.40;;;7.53;;
13202;SDS011;6666;51.626;7.530;2023-05-14T05:00:07;12.07;;;7.22;;
13202;SDS011;6666;51.626;7.530;2023-05-14T05:02:36;8.27;;;7.30;;
13202;SDS011;6666;51.626;7.530;2023-05-14T05:05:06;10.10;;;6.70;;
13202;SDS011;6666;51.626;7.530;2023-05-14T05:07:35;9.47;;;7.10;;
13202;SDS011;6666;51.626;7.530;2023-05-14T05:10:04;9.40;;;7.38;;
13202;SDS011;6666;51.626;7.530;2023-05-14T05:12:33;8.37;;;7.10;;
13202;SDS011;6666;51.626;7.530;2023-05-14T05:15:02;12.30;;;7.10;;
13202;SDS011;6666;51.626;7.530;2023-05-14T05:17:30;8.67;;;7.13;;
13202;SDS011;6666;51.626;7.530;2023-05-14T05:19:58;9.88;;;7.88;;
13202;SDS011;6666;51.626;7.530;2023-05-14T05:22:28;9.23;;;7.50;;
13202;SDS011;6666;51.626;7.530;2023-05-14T05:24:56;9.93;;;7.80;;
13202;SDS011;6666;51.626;7.530;2023-05-14T05:27:25;11.27;;;8.48;;
13202;SDS011;6666;51.626;7.530;2023-05-14T05:29:53;8.82;;;7.90;;
13202;SDS011;6666;51.626;7.530;2023-05-14T05:32:21;12.83;;;8.23;;
13202;SDS011;6666;51.626;7.530;2023-05-14T05:34:50;10.07;;;8.25;;
13202;SDS011;6666;51.626;7.530;2023-05-14T05:37:18;10.98;;;7.50;;
13202;SDS011;6666;51.626;7.530;2023-05-14T05:39:47;9.23;;;6.70;;
13202;SDS011;6666;51.626;7.530;2023-05-14T05:42:16;10.80;;;7.50;;
13202;SDS011;6666;51.626;7.530;2023-05-14T05:44:44;9.93;;;7.57;;
13202;SDS011;6666;51.626;7.530;2023-05-14T05:47:12;9.82;;;8.30;;
13202;SDS011;6666;51.626;7.530;2023-05-14T05:49:40;12.80;;;7.95;;
13202;SDS011;6666;51.626;7.530;2023-05-14T05:52:08;10.55;;;8.50;;
13202;SDS011;6666;51.626;7.530;2023-05-14T05:54:36;12.50;;;9.03;;
13202;SDS011;6666;51.626;7.530;2023-05-14T05:57:06;11.10;;;8.70;;
13202;SDS011;6666;51.626;7.530;2023-05-14T05:59:34;11.80;;;8.68;;
13202;SDS011;6666;51.626;7.530;2023-05-14T06:02:03;10.57;;;8.40;;
13202;SDS011;6666;51.626;7.530;2023-05-14T06:04:31;9.20;;;7.90;;
13202;SDS011;6666;51.626;7.530;2023-05-14T06:06:59;10.25;;;7.82;;
13202;SDS011;6666;51.626;7.530;2023-05-14T06:09:27;16.23;;;8.13;;
13202;SDS011;6666;51.626;7.530;2023-05-14T06:11:55;13.67;;;7.83;;
13202;SDS011;6666;51.626;7.530;2023-05-14T06:14:25;10.32;;;8.40;;
13202;SDS011;6666;51.626;7.530;2023-05-14T06:16:53;11.45;;;7.60;;
13202;SDS011;6666;51.626;7.530;2023-05-14T06:19:21;11.48;;;8.30;;
13202;SDS011;6666;51.626;7.530;2023-05-14T06:21:49;12.25;;;7.85;;
13202;SDS011;6666;51.626;7.530;2023-05-14T06:24:17;13.00;;;8.10;;
13202;SDS011;6666;51.626;7.530;2023-05-14T06:26:46;9.77;;;8.38;;
13202;SDS011;6666;51.626;7.530;2023-05-14T06:29:15;13.93;;;11.25;;
13202;SDS011;6666;51.626;7.530;2023-05-14T06:31:44;9.40;;;8.02;;
13202;SDS011;6666;51.626;7.530;2023-05-14T06:34:12;9.02;;;7.10;;
13202;SDS011;6666;51.626;7.530;2023-05-14T06:36:41;10.50;;;7.28;;
13202;SDS011;6666;51.626;7.530;2023-05-14T06:39:09;9.40;;;7.50;;
13202;SDS011;6666;51.626;7.530;2023-05-14T06:41:37;10.95;;;6.50;;
13202;SDS011;6666;51.626;7.530;2023-05-14T06:44:08;8.88;;;7.40;;
13202;SDS011;6666;51.626;7.530;2023-05-14T06:46:36;12.37;;;8.33;;
13202;SDS011;6666;51.626;7.530;2023-05-14T06:49:06;11.50;;;7.80;;
13202;SDS011;6666;51.626;7.530;2023-05-14T06:51:34;11.20;;;8.27;;
13202;SDS011;6666;51.626;7.530;2023-05-14T06:54:04;12.25;;;8.80;;
13202;SDS011;6666;51.626;7.530;2023-05-14T06:56:33;12.80;;;8.15;;
13202;SDS011;6666;51.626;7.530;2023-05-14T06:59:01;11.98;;;7.10;;
13202;SDS011;6666;51.626;7.530;2023-05-14T07:01:29;12.20;;;8.87;;
13202;SDS011;6666;51.626;7.530;2023-05-14T07:03:58;12.55;;;7.93;;
13202;SDS011;6666;51.626;7.530;2023-05-14T07:06:27;8.93;;;7.22;;
13202;SDS011;6666;51.626;7.530;2023-05-14T07:08:55;9.50;;;7.20;;
13202;SDS011;6666;51.626;7.530;2023-05-14T07:11:23;10.07;;;7.63;;
13202;SDS011;6666;51.626;7.530;2023-05-14T07:13:52;8.48;;;6.45;;
13202;SDS011;6666;51.626;7.530;2023-05-14T07:16:20;7.78;;;6.57;;
13202;SDS011;6666;51.626;7.530;2023-05-14T07:18:48;8.75;;;5.70;;
13202;SDS011;6666;51.626;7.530;2023-05-14T07:21:16;8.57;;;6.30;;
13202;SDS011;6666;51.626;7.530;2023-05-14T07:23:46;8.35;;;6.90;;
13202;SDS011;6666;51.626;7.530;2023-05-14T07:26:14;7.40;;;6.50;;
13202;SDS011;6666;51.626;7.530;2023-05-14T07:28:42;13.57;;;7.60;;
13202;SDS011;6666;51.626;7.530;2023-05-14T07:31:10;9.60;;;6.57;;
13202;SDS011;6666;51.626;7.530;2023-05-14T07:33:40;10.40;;;6.30;;
13202;SDS011;6666;51.626;7.530;2023-05-14T07:36:08;7.40;;;6.28;;
13202;SDS011;6666;51.626;7.530;2023-05-14T07:38:36;7.17;;;6.47;;
13202;SDS011;6666;51.626;7.530;2023-05-14T07:41:05;8.23;;;6.68;;
13202;SDS011;6666;51.626;7.530;2023-05-14T07:43:34;8.02;;;6.50;;
13202;SDS011;6666;51.626;7.530;2023-05-14T07:46:03;6.22;;;5.10;;
13202;SDS011;6666;51.626;7.530;2023-05-14T07:48:31;8.98;;;5.45;;
13202;SDS011;6666;51.626;7.530;2023-05-14T07:50:59;6.10;;;5.40;;
13202;SDS011;6666;51.626;7.530;2023-05-14T07:53:27;8.80;;;5.10;;
13202;SDS011;6666;51.626;7.530;2023-05-14T07:55:56;7.90;;;5.20;;
13202;SDS011;6666;51.626;7.530;2023-05-14T07:58:26;6.55;;;5.30;;
13202;SDS011;6666;51.626;7.530;2023-05-14T08:00:55;7.18;;;4.97;;
13202;SDS011;6666;51.626;7.530;2023-05-14T08:03:23;8.40;;;6.40;;
13202;SDS011;6666;51.626;7.530;2023-05-14T08:05:51;9.15;;;5.20;;
13202;SDS011;6666;51.626;7.530;2023-05-14T08:08:19;8.73;;;4.88;;
13202;SDS011;6666;51.626;7.530;2023-05-14T08:10:47;6.50;;;4.70;;
13202;SDS011;6666;51.626;7.530;2023-05-14T08:13:16;4.20;;;3.78;;
13202;SDS011;6666;51.626;7.530;2023-05-14T08:15:45;3.58;;;3.00;;
13202;SDS011;6666;51.626;7.530;2023-05-14T08:18:13;2.80;;;2.50;;
13202;SDS011;6666;51.626;7.530;2023-05-14T08:20:41;4.10;;;3.07;;
13202;SDS011;6666;51.626;7.530;2023-05-14T08:23:09;6.38;;;3.15;;
13202;SDS011;6666;51.626;7.530;2023-05-14T08:25:37;7.20;;;4.20;;
13202;SDS011;6666;51.626;7.530;2023-05-14T08:28:06;4.00;;;2.80;;
13202;SDS011;6666;51.626;7.530;2023-05-14T08:30:34;2.27;;;2.10;;
13202;SDS011;6666;51.626;7.530;2023-05-14T08:33:03;3.55;;;2.85;;
13202;SDS011;6666;51.626;7.530;2023-05-14T08:35:32;3.50;;;2.60;;
13202;SDS011;6666;51.626;7.530;2023-05-14T08:38:00;2.20;;;2.00;;
13202;SDS011;6666;51.626;7.530;2023-05-14T08:40:28;2.67;;;2.30;;
13202;SDS011;6666;51.626;7.530;2023-05-14T08:42:56;4.45;;;3.83;;
13202;SDS011;6666;51.626;7.530;2023-05-14T08:45:27;3.17;;;2.78;;
13202;SDS011;6666;51.626;7.530;2023-05-14T08:47:59;2.40;;;2.20;;
13202;SDS011;6666;51.626;7.530;2023-05-14T08:50:32;3.07;;;1.97;;
13202;SDS011;6666;51.626;7.530;2023-05-14T08:53:01;3.65;;;2.80;;
13202;SDS011;6666;51.626;7.530;2023-05-14T08:55:29;2.30;;;2.10;;
13202;SDS011;6666;51.626;7.530;2023-05-14T08:57:58;2.70;;;2.20;;
13202;SDS011;6666;51.626;7.530;2023-05-14T09:00:27;2.25;;;2.05;;
13202;SDS011;6666;51.626;7.530;2023-05-14T09:02:55;3.25;;;2.65;;
13202;SDS011;6666;51.626;7.530;2023-05-14T09:05:24;2.20;;;2.00;;
13202;SDS011;6666;51.626;7.530;2023-05-14T09:07:53;3.10;;;2.30;;
13202;SDS011;6666;51.626;7.530;2023-05-14T09:10:22;2.35;;;2.00;;
13202;SDS011;6666;51.626;7.530;2023-05-14T09:12:50;1.73;;;1.63;;
13202;SDS011;6666;51.626;7.530;2023-05-14T09:15:18;3.27;;;2.73;;
13202;SDS011;6666;51.626;7.530;2023-05-14T09:17:46;15.68;;;10.80;;
13202;SDS011;6666;51.626;7.530;2023-05-14T09:20:14;7.57;;;5.95;;
13202;SDS011;6666;51.626;7.530;2023-05-14T09:22:43;2.50;;;2.22;;
13202;SDS011;6666;51.626;7.530;2023-05-14T09:25:12;2.05;;;1.80;;
13202;SDS011;6666;51.626;7.530;2023-05-14T09:27:40;1.80;;;1.70;;
13202;SDS011;6666;51.626;7.530;2023-05-14T09:30:09;3.05;;;1.95;;
13202;SDS011;6666;51.626;7.530;2023-05-14T09:32:39;2.10;;;1.80;;
13202;SDS011;6666;51.626;7.530;2023-05-14T09:35:10;1.90;;;1.50;;
13202;SDS011;6666;51.626;7.530;2023-05-14T09:37:44;2.60;;;2.20;;
13202;SDS011;6666;51.626;7.530;2023-05-14T09:40:15;1.80;;;1.50;;
13202;SDS011;6666;51.626;7.530;2023-05-14T09:42:44;2.20;;;1.85;;
13202;SDS011;6666;51.626;7.530;2023-05-14T09:45:13;2.33;;;1.87;;
13202;SDS011;6666;51.626;7.530;2023-05-14T09:47:41;2.50;;;2.00;;
13202;SDS011;6666;51.626;7.530;2023-05-14T09:50:10;2.13;;;1.90;;
13202;SDS011;6666;51.626;7.530;2023-05-14T09:52:38;2.10;;;1.90;;
13202;SDS011;6666;51.626;7.530;2023-05-14T09:55:07;2.60;;;2.00;;
13202;SDS011;6666;51.626;7.530;2023-05-14T09:57:37;3.10;;;2.40;;
13202;SDS011;6666;51.626;7.530;2023-05-14T10:00:06;4.50;;;1.92;;
13202;SDS011;6666;51.626;7.530;2023-05-14T10:02:35;2.00;;;1.73;;
13202;SDS011;6666;51.626;7.530;2023-05-14T10:05:06;4.00;;;3.33;;
13202;SDS011;6666;51.626;7.530;2023-05-14T10:07:37;2.20;;;1.80;;
13202;SDS011;6666;51.626;7.530;2023-05-14T10:10:09;2.30;;;2.10;;
13202;SDS011;6666;51.626;7.530;2023-05-14T10:12:44;1.50;;;1.40;;
13202;SDS011;6666;51.626;7.530;2023-05-14T10:15:19;2.15;;;1.80;;
13202;SDS011;6666;51.626;7.530;2023-05-14T10:17:57;2.05;;;1.55;;
13202;SDS011;6666;51.626;7.530;2023-05-14T10:20:30;2.60;;;1.80;;
13202;SDS011;6666;51.626;7.530;2023-05-14T10:22:58;1.70;;;1.60;;
13202;SDS011;6666;51.626;7.530;2023-05-14T10:25:27;3.80;;;1.40;;
13202;SDS011;6666;51.626;7.530;2023-05-14T10:27:57;2.10;;;1.90;;
13202;SDS011;6666;51.626;7.530;2023-05-14T10:30:26;1.90;;;1.50;;
13202;SDS011;6666;51.626;7.530;2023-05-14T10:33:07;1.55;;;1.35;;
13202;SDS011;6666;51.626;7.530;2023-05-14T10:35:58;1.40;;;1.30;;
13202;SDS011;6666;51.626;7.530;2023-05-14T10:38:27;2.10;;;1.67;;
13202;SDS011;6666;51.626;7.530;2023-05-14T10:40:58;2.10;;;1.67;;
13202;SDS011;6666;51.626;7.530;2023-05-14T10:43:28;1.88;;;1.50;;
13202;SDS011;6666;51.626;7.530;2023-05-14T10:45:58;2.30;;;1.60;;
13202;SDS011;6666;51.626;7.530;2023-05-14T10:48:26;2.00;;;1.70;;
13202;SDS011;6666;51.626;7.530;2023-05-14T10:50:55;3.75;;;1.60;;
13202;SDS011;6666;51.626;7.530;2023-05-14T10:53:33;1.80;;;1.40;;
13202;SDS011;6666;51.626;7.530;2023-05-14T10:56:04;1.67;;;1.50;;
13202;SDS011;6666;51.626;7.530;2023-05-14T10:58:38;3.10;;;1.60;;
13202;SDS011;6666;51.626;7.530;2023-05-14T11:01:09;3.00;;;1.60;;
13202;SDS011;6666;51.626;7.530;2023-05-14T11:03:39;1.50;;;1.40;;
13202;SDS011;6666;51.626;7.530;2023-05-14T11:06:08;3.00;;;1.50;;
13202;SDS011;6666;51.626;7.530;2023-05-14T11:08:38;1.50;;;1.40;;
13202;SDS011;6666;51.626;7.530;2023-05-14T11:11:07;1.70;;;1.60;;
13202;SDS011;6666;51.626;7.530;2023-05-14T11:13:37;3.45;;;1.58;;
13202;SDS011;6666;51.626;7.530;2023-05-14T11:16:05;1.80;;;1.60;;
13202;SDS011;6666;51.626;7.530;2023-05-14T11:18:38;1.60;;;1.50;;
13202;SDS011;6666;51.626;7.530;2023-05-14T11:21:07;1.60;;;1.50;;
13202;SDS011;6666;51.626;7.530;2023-05-14T11:23:35;1.20;;;1.10;;
13202;SDS011;6666;51.626;7.530;2023-05-14T11:26:03;1.70;;;1.35;;
13202;SDS011;6666;51.626;7.530;2023-05-14T11:28:33;1.50;;;1.40;;
13202;SDS011;6666;51.626;7.530;2023-05-14T11:31:03;1.58;;;1.48;;
13202;SDS011;6666;51.626;7.530;2023-05-14T11:33:31;2.92;;;1.58;;
13202;SDS011;6666;51.626;7.530;2023-05-14T11:35:59;1.80;;;1.50;;
13202;SDS011;6666;51.626;7.530;2023-05-14T11:38:28;2.47;;;1.70;;
13202;SDS011;6666;51.626;7.530;2023-05-14T11:40:56;1.70;;;1.60;;
13202;SDS011;6666;51.626;7.530;2023-05-14T11:43:25;2.30;;;1.60;;
13202;SDS011;6666;51.626;7.530;2023-05-14T11:45:54;3.50;;;1.60;;
13202;SDS011;6666;51.626;7.530;2023-05-14T11:48:24;1.60;;;1.50;;
13202;SDS011;6666;51.626;7.530;2023-05-14T11:50:52;1.67;;;1.58;;
13202;SDS011;6666;51.626;7.530;2023-05-14T11:53:24;2.40;;;1.40;;
13202;SDS011;6666;51.626;7.530;2023-05-14T11:55:53;2.90;;;1.40;;
13202;SDS011;6666;51.626;7.530;2023-05-14T11:58:23;1.98;;;1.30;;
13202;SDS011;6666;51.626;7.530;2023-05-14T12:00:51;3.95;;;2.55;;
13202;SDS011;6666;51.626;7.530;2023-05-14T12:03:19;2.20;;;1.70;;
13202;SDS011;6666;51.626;7.530;2023-05-14T12:05:56;1.60;;;1.50;;
13202;SDS011;6666;51.626;7.530;2023-05-14T12:08:26;2.00;;;1.60;;
13202;SDS011;6666;51.626;7.530;2023-05-14T12:10:56;2.20;;;1.60;;
13202;SDS011;6666;51.626;7.530;2023-05-14T12:13:25;1.52;;;1.42;;
13202;SDS011;6666;51.626;7.530;2023-05-14T12:15:55;2.40;;;1.87;;
13202;SDS011;6666;51.626;7.530;2023-05-14T12:18:24;3.10;;;2.00;;
13202;SDS011;6666;51.626;7.530;2023-05-14T12:20:53;2.20;;;1.70;;
13202;SDS011;6666;51.626;7.530;2023-05-14T12:23:26;3.00;;;1.58;;
13202;SDS011;6666;51.626;7.530;2023-05-14T12:26:00;2.35;;;1.80;;
13202;SDS011;6666;51.626;7.530;2023-05-14T12:28:29;1.80;;;1.60;;
13202;SDS011;6666;51.626;7.530;2023-05-14T12:30:58;1.50;;;1.40;;
13202;SDS011;6666;51.626;7.530;2023-05-14T12:33:27;1.95;;;1.55;;
13202;SDS011;6666;51.626;7.530;2023-05-14T12:35:55;2.90;;;2.00;;
13202;SDS011;6666;51.626;7.530;2023-05-14T12:38:46;1.70;;;1.60;;
13202;SDS011;6666;51.626;7.530;2023-05-14T12:41:15;3.45;;;1.63;;
13202;SDS011;6666;51.626;7.530;2023-05-14T12:43:43;1.90;;;1.70;;
13202;SDS011;6666;51.626;7.530;2023-05-14T12:46:14;1.50;;;1.20;;
13202;SDS011;6666;51.626;7.530;2023-05-14T12:48:42;4.88;;;1.80;;
13202;SDS011;6666;51.626;7.530;2023-05-14T12:51:10;1.50;;;1.40;;
13202;SDS011;6666;51.626;7.530;2023-05-14T12:53:38;6.60;;;2.00;;
13202;SDS011;6666;51.626;7.530;2023-05-14T12:56:08;1.95;;;1.80;;
13202;SDS011;6666;51.626;7.530;2023-05-14T12:58:36;1.48;;;1.38;;
13202;SDS011;6666;51.626;7.530;2023-05-14T13:01:05;1.80;;;1.70;;
13202;SDS011;6666;51.626;7.530;2023-05-14T13:03:33;3.00;;;1.40;;
13202;SDS011;6666;51.626;7.530;2023-05-14T13:06:02;1.70;;;1.40;;
13202;SDS011;6666;51.626;7.530;2023-05-14T13:08:30;1.55;;;1.45;;
13202;SDS011;6666;51.626;7.530;2023-05-14T13:10:58;4.80;;;1.40;;
13202;SDS011;6666;51.626;7.530;2023-05-14T13:13:28;2.20;;;1.80;;
13202;SDS011;6666;51.626;7.530;2023-05-14T13:15:56;1.67;;;1.40;;
13202;SDS011;6666;51.626;7.530;2023-05-14T13:18:24;1.73;;;1.63;;
13202;SDS011;6666;51.626;7.530;2023-05-14T13:20:52;2.10;;;1.90;;
13202;SDS011;6666;51.626;7.530;2023-05-14T13:23:21;2.20;;;1.48;;
13202;SDS011;6666;51.626;7.530;2023-05-14T13:25:49;1.70;;;1.60;;
13202;SDS011;6666;51.626;7.530;2023-05-14T13:28:17;1.90;;;1.80;;
13202;SDS011;6666;51.626;7.530;2023-05-14T13:31:02;2.30;;;1.50;;
13202;SDS011;6666;51.626;7.530;2023-05-14T13:33:36;2.20;;;1.60;;
13202;SDS011;6666;51.626;7.530;2023-05-14T13:36:06;3.70;;;1.40;;
13202;SDS011;6666;51.626;7.530;2023-05-14T13:38:35;1.83;;;1.63;;
13202;SDS011;6666;51.626;7.530;2023-05-14T13:41:03;4.00;;;1.90;;
13202;SDS011;6666;51.626;7.530;2023-05-14T13:43:32;2.38;;;1.70;;
13202;SDS011;6666;51.626;7.530;2023-05-14T13:46:03;1.42;;;1.30;;
13202;SDS011;6666;51.626;7.530;2023-05-14T13:48:32;3.00;;;1.60;;
13202;SDS011;6666;51.626;7.530;2023-05-14T13:51:01;1.67;;;1.40;;
13202;SDS011;6666;51.626;7.530;2023-05-14T13:53:29;1.90;;;1.30;;
13202;SDS011;6666;51.626;7.530;2023-05-14T13:55:57;1.85;;;1.48;;
13202;SDS011;6666;51.626;7.530;2023-05-14T13:58:27;1.30;;;1.20;;
13202;SDS011;6666;51.626;7.530;2023-05-14T14:00:55;1.40;;;1.30;;
13202;SDS011;6666;51.626;7.530;2023-05-14T14:03:24;1.70;;;1.40;;
13202;SDS011;6666;51.626;7.530;2023-05-14T14:05:52;2.90;;;1.40;;
13202;SDS011;6666;51.626;7.530;2023-05-14T14:08:20;2.97;;;1.40;;
13202;SDS011;6666;51.626;7.530;2023-05-14T14:10:50;1.20;;;1.10;;
13202;SDS011;6666;51.626;7.530;2023-05-14T14:13:20;2.00;;;1.30;;
13202;SDS011;6666;51.626;7.530;2023-05-14T14:15:49;1.40;;;1.20;;
13202;SDS011;6666;51.626;7.530;2023-05-14T14:18:18;1.20;;;1.10;;
13202;SDS011;6666;51.626;7.530;2023-05-14T14:20:47;3.30;;;1.20;;
13202;SDS011;6666;51.626;7.530;2023-05-14T14:23:16;2.70;;;1.90;;
13202;SDS011;6666;51.626;7.530;2023-05-14T14:25:44;1.23;;;1.10;;
13202;SDS011;6666;51.626;7.530;2023-05-14T14:28:12;1.98;;;1.60;;
13202;SDS011;6666;51.626;7.530;2023-05-14T14:30:41;2.45;;;1.70;;
13202;SDS011;6666;51.626;7.530;2023-05-14T14:33:09;1.83;;;1.73;;
13202;SDS011;6666;51.626;7.530;2023-05-14T14:35:37;3.30;;;1.15;;
13202;SDS011;6666;51.626;7.530;2023-05-14T14:38:07;1.45;;;1.05;;
13202;SDS011;6666;51.626;7.530;2023-05-14T14:40:35;1.30;;;1.20;;
13202;SDS011;6666;51.626;7.530;2023-05-14T14:43:03;1.73;;;1.50;;
13202;SDS011;6666;51.626;7.530;2023-05-14T14:45:31;1.90;;;1.80;;
13202;SDS011;6666;51.626;7.530;2023-05-14T14:50:49;1.30;;;1.20;;
13202;SDS011;6666;51.626;7.530;2023-05-14T14:53:19;1.70;;;1.40;;
13202;SDS011;6666;51.626;7.530;2023-05-14T14:55:48;1.88;;;1.52;;
13202;SDS011;6666;51.626;7.530;2023-05-14T14:58:17;3.30;;;2.05;;
13202;SDS011;6666;51.626;7.530;2023-05-14T15:00:46;2.00;;;1.67;;
13202;SDS011;6666;51.626;7.530;2023-05-14T15:03:16;2.17;;;1.50;;
13202;SDS011;6666;51.626;7.530;2023-05-14T15:05:44;1.60;;;1.50;;
13202;SDS011;6666;51.626;7.530;2023-05-14T15:08:12;2.23;;;1.70;;
13202;SDS011;6666;51.626;7.530;2023-05-14T15:10:42;6.60;;;2.27;;
13202;SDS011;6666;51.626;7.530;2023-05-14T15:13:11;3.45;;;1.50;;